createdAt,value
2023-10-30T00:01:50.328Z,61.42
2023-10-30T00:04:20.410Z,61.28
2023-10-30T00:06:50.556Z,61.71
2023-10-30T00:09:25.776Z,61.36
2023-10-30T00:11:57.882Z,61.31
2023-10-30T00:14:45.807Z,61.29
2023-10-30T00:17:16.058Z,61.63
2023-10-30T00:19:45.946Z,61.69
2023-10-30T00:22:23.185Z,61.78
2023-10-30T00:24:56.505Z,61.49
2023-10-30T00:27:30.050Z,62.30
2023-10-30T00:29:59.857Z,62.00
2023-10-30T00:32:54.939Z,61.67
2023-10-30T00:35:29.223Z,62.07
2023-10-30T00:37:59.646Z,61.64
2023-10-30T00:40:30.046Z,61.62
2023-10-30T00:43:02.422Z,61.91
2023-10-30T00:45:45.079Z,61.69
2023-10-30T00:48:17.246Z,61.57
2023-10-30T00:50:47.443Z,61.62
2023-10-30T00:53:19.669Z,61.23
2023-10-30T00:55:53.290Z,61.52
2023-10-30T00:58:23.885Z,61.89
2023-10-30T01:00:53.912Z,61.87
2023-10-30T01:03:27.732Z,61.58
2023-10-30T01:06:01.642Z,61.48
2023-10-30T01:08:33.150Z,61.64
2023-10-30T01:11:13.063Z,62.05
2023-10-30T01:13:49.186Z,61.87
2023-10-30T01:16:23.610Z,61.93
2023-10-30T01:18:52.997Z,61.72
2023-10-30T01:21:22.790Z,61.93
2023-10-30T01:23:55.393Z,61.75
2023-10-30T01:26:25.813Z,61.59
2023-10-30T01:28:55.344Z,61.87
2023-10-30T01:31:29.943Z,61.63
2023-10-30T01:34:03.091Z,62.00
2023-10-30T01:36:32.826Z,61.89
2023-10-30T01:39:03.776Z,61.55
2023-10-30T01:41:33.826Z,61.66
2023-10-30T01:44:05.982Z,62.03
2023-10-30T01:46:44.581Z,61.57
2023-10-30T01:49:21.176Z,61.89
2023-10-30T01:51:53.309Z,61.57
2023-10-30T01:54:26.708Z,62.06
2023-10-30T01:56:57.629Z,61.65
2023-10-30T01:59:29.806Z,61.88
2023-10-30T02:02:05.081Z,61.80
2023-10-30T02:04:45.215Z,61.64
2023-10-30T02:07:20.888Z,62.05
2023-10-30T02:09:56.772Z,62.10
2023-10-30T02:12:28.503Z,61.66
2023-10-30T02:14:59.398Z,61.95
2023-10-30T02:17:49.749Z,61.55
2023-10-30T02:20:43.154Z,62.02
2023-10-30T02:23:42.977Z,61.80
2023-10-30T02:26:18.272Z,62.09
2023-10-30T02:28:49.085Z,61.78
2023-10-30T02:31:20.288Z,61.86
2023-10-30T02:33:52.096Z,62.38
2023-10-30T02:36:23.458Z,62.29
2023-10-30T02:38:54.642Z,62.07
2023-10-30T02:41:25.065Z,62.06
2023-10-30T02:43:56.439Z,62.26
2023-10-30T02:46:27.484Z,61.86
2023-10-30T02:49:04.714Z,62.04
2023-10-30T02:51:35.615Z,62.23
2023-10-30T02:54:40.363Z,62.03
2023-10-30T02:57:13.945Z,62.11
2023-10-30T02:59:46.606Z,61.96
2023-10-30T03:02:23.080Z,62.01
2023-10-30T03:04:53.396Z,61.93
2023-10-30T03:07:24.010Z,62.09
2023-10-30T03:09:53.558Z,62.19
2023-10-30T03:12:24.434Z,62.53
2023-10-30T03:14:55.572Z,62.24
2023-10-30T03:17:25.791Z,62.39
2023-10-30T03:19:58.756Z,62.55
2023-10-30T03:22:32.360Z,62.35
2023-10-30T03:25:53.946Z,62.00
2023-10-30T03:28:27.392Z,61.99
2023-10-30T03:31:13.010Z,61.12
2023-10-30T03:33:47.592Z,61.54
2023-10-30T03:36:25.194Z,62.05
2023-10-30T03:38:56.214Z,62.06
2023-10-30T03:41:27.142Z,61.85
2023-10-30T03:43:59.512Z,61.95
2023-10-30T03:46:29.040Z,62.09
2023-10-30T03:49:05.696Z,61.74
2023-10-30T03:51:42.392Z,62.04
2023-10-30T03:54:20.251Z,61.84
2023-10-30T03:56:51.523Z,62.19
2023-10-30T03:59:33.825Z,62.20
2023-10-30T04:03:50.079Z,61.65
2023-10-30T04:06:51.901Z,62.04
2023-10-30T04:09:29.806Z,62.05
2023-10-30T04:12:04.387Z,62.04
2023-10-30T04:14:36.309Z,62.05
2023-10-30T04:17:12.046Z,62.02
2023-10-30T04:19:43.772Z,62.35
2023-10-30T04:22:47.098Z,62.08
2023-10-30T04:25:24.679Z,62.03
2023-10-30T04:28:00.937Z,62.12
2023-10-30T04:30:34.899Z,62.31
2023-10-30T04:37:10.818Z,62.11
2023-10-30T04:39:45.351Z,62.09
2023-10-30T04:42:24.308Z,62.44
2023-10-30T04:54:16.309Z,61.92
2023-10-30T04:56:47.213Z,61.77
2023-10-30T05:04:00.094Z,61.98
2023-10-30T05:06:44.759Z,62.30
2023-10-30T05:09:30.414Z,62.36
2023-10-30T05:17:17.508Z,62.14
2023-10-30T05:20:00.780Z,62.11
2023-10-30T05:22:36.204Z,62.31
2023-10-30T05:25:42.550Z,61.98
2023-10-30T05:40:23.291Z,61.88
2023-10-30T05:43:09.120Z,61.78
2023-10-30T05:46:21.726Z,61.87
2023-10-30T05:49:06.478Z,62.31
2023-10-30T05:55:58.543Z,61.97
2023-10-30T05:59:23.854Z,62.08
2023-10-30T06:06:31.759Z,61.65
2023-10-30T06:09:11.866Z,62.17
2023-10-30T06:12:14.489Z,62.08
2023-10-30T06:15:17.487Z,62.51
2023-10-30T06:18:09.415Z,62.07
2023-10-30T06:20:52.904Z,62.25
2023-10-30T06:23:38.299Z,62.21
2023-10-30T06:26:17.814Z,62.34
2023-10-30T06:28:58.208Z,62.31
2023-10-30T06:31:46.469Z,62.41
2023-10-30T06:35:03.289Z,61.49
2023-10-30T06:38:06.920Z,62.18
2023-10-30T06:40:46.119Z,62.50
2023-10-30T06:43:44.705Z,62.48
2023-10-30T06:53:46.709Z,62.42
2023-10-30T06:56:32.690Z,62.48
2023-10-30T06:59:32.342Z,62.49
2023-10-30T07:02:14.610Z,62.63
2023-10-30T07:04:57.484Z,62.81
2023-10-30T07:08:27.134Z,62.78
2023-10-30T07:20:13.572Z,62.48
2023-10-30T07:26:42.065Z,62.52
2023-10-30T07:33:26.200Z,62.75
2023-10-30T07:37:03.923Z,62.62
2023-10-30T07:39:50.597Z,62.62
2023-10-30T07:42:24.826Z,62.66
2023-10-30T07:45:18.427Z,62.77
2023-10-30T07:52:00.278Z,62.56
2023-10-30T07:54:56.462Z,62.65
2023-10-30T08:06:31.376Z,62.51
2023-10-30T08:09:02.038Z,62.73
2023-10-30T08:11:36.249Z,62.79
2023-10-30T08:15:14.616Z,62.92
2023-10-30T08:19:01.363Z,62.76
2023-10-30T08:22:16.645Z,63.05
2023-10-30T08:24:48.621Z,62.95
2023-10-30T08:27:29.450Z,63.08
2023-10-30T08:30:20.359Z,63.38
2023-10-30T08:32:57.061Z,63.29
2023-10-30T08:35:40.157Z,63.38
2023-10-30T08:41:44.641Z,63.19
2023-10-30T08:44:31.194Z,63.29
2023-10-30T08:48:17.446Z,63.02
2023-10-30T08:50:53.167Z,62.79
2023-10-30T08:53:24.702Z,62.97
2023-10-30T08:56:06.274Z,63.24
2023-10-30T08:58:52.820Z,63.17
2023-10-30T09:01:38.031Z,63.21
2023-10-30T09:04:14.457Z,63.35
2023-10-30T09:06:53.468Z,63.33
2023-10-30T09:09:24.900Z,63.52
2023-10-30T09:11:55.608Z,63.66
2023-10-30T09:14:26.678Z,63.66
2023-10-30T09:16:58.919Z,63.65
2023-10-30T09:19:29.455Z,63.51
2023-10-30T09:21:58.093Z,63.69
2023-10-30T09:24:29.804Z,64.02
2023-10-30T09:26:59.574Z,63.98
2023-10-30T09:29:35.437Z,64.17
2023-10-30T09:32:09.462Z,64.27
2023-10-30T09:34:43.873Z,64.15
2023-10-30T09:37:21.578Z,64.30
2023-10-30T09:39:52.561Z,64.52
2023-10-30T09:42:22.904Z,64.28
2023-10-30T09:44:52.804Z,64.32
2023-10-30T09:47:26.509Z,64.21
2023-10-30T09:50:25.153Z,64.30
2023-10-30T09:52:59.176Z,64.04
2023-10-30T09:55:30.984Z,63.93
2023-10-30T09:58:01.652Z,64.44
2023-10-30T10:00:30.853Z,64.11
2023-10-30T10:03:08.626Z,63.94
2023-10-30T10:05:39.177Z,64.51
2023-10-30T10:08:13.997Z,64.41
2023-10-30T10:11:09.114Z,64.17
2023-10-30T10:14:07.387Z,63.87
2023-10-30T10:16:44.591Z,64.16
2023-10-30T10:19:25.364Z,64.54
2023-10-30T10:22:03.605Z,64.38
2023-10-30T10:24:42.229Z,64.22
2023-10-30T10:36:43.756Z,64.52
2023-10-30T10:39:15.887Z,64.59
2023-10-30T10:41:45.027Z,64.63
2023-10-30T10:44:15.522Z,64.39
2023-10-30T10:46:44.614Z,64.43
2023-10-30T10:49:14.982Z,64.54
2023-10-30T10:51:48.789Z,64.78
2023-10-30T11:03:50.288Z,64.31
2023-10-30T11:06:27.164Z,64.74
2023-10-30T11:09:04.343Z,64.58
2023-10-30T11:11:52.604Z,64.57
2023-10-30T11:15:00.672Z,64.47
2023-10-30T11:17:31.059Z,64.58
2023-10-30T11:20:12.557Z,64.72
2023-10-30T11:22:46.087Z,64.73
2023-10-30T11:25:56.816Z,64.45
2023-10-30T11:28:29.344Z,64.52
2023-10-30T11:31:09.954Z,65.05
2023-10-30T11:34:15.148Z,65.03
2023-10-30T11:36:50.131Z,64.86
2023-10-30T11:39:22.894Z,65.21
2023-10-30T11:41:54.790Z,64.76
2023-10-30T11:44:44.114Z,65.18
2023-10-30T11:47:15.080Z,64.89
2023-10-30T11:49:45.306Z,64.96
2023-10-30T11:52:17.843Z,64.82
2023-10-30T11:54:48.586Z,65.04
2023-10-30T11:57:18.497Z,65.09
2023-10-30T11:59:47.880Z,64.94
2023-10-30T12:02:18.841Z,64.88
2023-10-30T12:04:49.194Z,65.33
2023-10-30T12:46:12.557Z,65.64
2023-10-30T12:53:57.010Z,66.37
2023-10-30T12:56:45.755Z,66.81
2023-10-30T13:09:38.619Z,67.10
2023-10-30T13:12:28.961Z,67.40
2023-10-30T13:14:57.979Z,67.87
2023-10-30T13:17:28.386Z,67.99
2023-10-30T13:19:57.362Z,67.86
2023-10-30T13:22:29.125Z,68.42
2023-10-30T13:24:58.995Z,68.39
2023-10-30T13:27:29.277Z,68.60
2023-10-30T13:29:58.860Z,68.66
2023-10-30T13:32:34.710Z,68.84
2023-10-30T13:35:06.402Z,68.28
2023-10-30T13:37:39.103Z,68.63
2023-10-30T13:40:11.231Z,68.72
2023-10-30T13:42:45.285Z,68.83
2023-10-30T13:45:18.930Z,68.83
2023-10-30T13:47:49.984Z,68.97
2023-10-30T13:50:20.654Z,68.85
2023-10-30T13:52:50.250Z,69.03
2023-10-30T13:55:24.031Z,68.80
2023-10-30T13:57:55.572Z,68.97
2023-10-30T14:00:32.468Z,69.13
2023-10-30T14:03:08.936Z,69.15
2023-10-30T14:05:43.660Z,68.83
2023-10-30T14:08:15.642Z,68.79
2023-10-30T14:10:45.992Z,69.03
2023-10-30T14:13:15.036Z,68.97
2023-10-30T14:20:58.820Z,68.52
2023-10-30T14:28:30.566Z,68.78
2023-10-30T14:36:08.564Z,68.94
2023-10-30T14:38:42.700Z,69.79
2023-10-30T14:41:12.708Z,69.65
2023-10-30T14:43:41.999Z,69.88
2023-10-30T14:46:15.226Z,69.97
2023-10-30T14:48:47.177Z,70.13
2023-10-30T14:51:21.718Z,70.38
2023-10-30T14:53:53.374Z,70.42
2023-10-30T14:56:22.464Z,70.17
2023-10-30T14:58:52.679Z,70.55
2023-10-30T15:01:22.277Z,70.61
2023-10-30T15:03:52.868Z,70.69
2023-10-30T15:06:23.956Z,70.81
2023-10-30T15:09:16.869Z,70.92
2023-10-30T15:11:58.217Z,70.73
2023-10-30T15:14:28.132Z,71.24
2023-10-30T15:16:58.166Z,71.26
2023-10-30T15:19:33.264Z,71.10
2023-10-30T15:22:02.595Z,71.34
2023-10-30T15:24:32.859Z,71.07
2023-10-30T15:27:02.191Z,71.29
2023-10-30T15:29:31.673Z,71.47
2023-10-30T15:32:01.845Z,71.39
2023-10-30T15:34:32.125Z,71.59
2023-10-30T15:37:03.670Z,71.85
2023-10-30T15:39:33.971Z,71.83
2023-10-30T15:47:38.310Z,72.31
2023-10-30T15:59:51.647Z,72.56
2023-10-30T16:02:20.150Z,72.28
2023-10-30T16:07:25.856Z,71.91
2023-10-30T16:12:29.321Z,71.49
2023-10-30T16:14:58.534Z,71.34
2023-10-30T16:17:28.503Z,71.08
2023-10-30T16:23:28.348Z,71.05
2023-10-30T16:30:52.357Z,70.43
2023-10-30T16:33:23.456Z,70.69
2023-10-30T16:35:53.482Z,70.23
2023-10-30T16:38:23.633Z,70.66
2023-10-30T16:40:53.418Z,69.90
2023-10-30T16:43:27.502Z,69.31
2023-10-30T16:45:57.209Z,69.11
2023-10-30T16:48:27.487Z,69.20
2023-10-30T16:50:57.146Z,68.22
2023-10-30T16:53:26.259Z,68.46
2023-10-30T16:55:56.901Z,68.03
2023-10-30T16:58:27.107Z,68.22
2023-10-30T17:00:57.708Z,67.86
2023-10-30T17:04:13.792Z,66.91
2023-10-30T17:12:26.511Z,64.46
2023-10-30T17:15:18.731Z,65.29
2023-10-30T17:23:29.694Z,64.89
2023-10-30T17:31:24.391Z,64.57
2023-10-30T17:40:48.704Z,64.07
2023-10-30T18:56:51.161Z,59.91
2023-10-30T19:12:17.277Z,59.02
2023-10-30T19:14:47.867Z,58.85
2023-10-30T19:17:17.511Z,58.83
2023-10-30T19:19:48.827Z,58.96
2023-10-30T19:22:18.698Z,59.12
2023-10-30T19:24:49.403Z,58.79
2023-10-30T19:27:18.774Z,58.83
2023-10-30T19:29:48.944Z,58.29
2023-10-30T19:32:27.738Z,57.70
2023-10-30T19:34:57.935Z,57.70
2023-10-30T19:37:29.314Z,57.37
2023-10-30T19:40:00.521Z,57.70
2023-10-30T19:47:44.038Z,56.08
2023-10-30T19:55:49.506Z,54.79
2023-10-30T19:58:37.705Z,56.50
2023-10-30T20:06:26.706Z,56.05
2023-10-30T20:09:06.818Z,56.12
2023-10-30T20:11:38.657Z,56.55
2023-10-30T20:14:08.429Z,56.20
2023-10-30T20:16:39.344Z,56.13
2023-10-30T20:19:10.639Z,55.84
2023-10-30T20:21:44.863Z,56.04
2023-10-30T20:24:15.067Z,56.16
2023-10-30T20:26:47.765Z,56.34
2023-10-30T20:29:18.507Z,56.35
2023-10-30T20:31:48.030Z,56.28
2023-10-30T20:34:17.671Z,56.56
2023-10-30T20:36:46.769Z,56.21
2023-10-30T20:39:19.386Z,56.25
2023-10-30T20:41:52.422Z,56.54
2023-10-30T20:44:23.592Z,56.46
2023-10-30T20:46:54.243Z,56.54
2023-10-30T20:49:25.934Z,56.40
2023-10-30T20:51:56.344Z,56.24
2023-10-30T20:54:33.186Z,56.22
2023-10-30T20:57:11.578Z,56.00
2023-10-30T20:59:41.066Z,56.51
2023-10-30T21:02:12.559Z,56.51
2023-10-30T21:04:42.430Z,56.92
2023-10-30T21:07:13.805Z,56.83
2023-10-30T21:09:45.039Z,57.16
2023-10-30T21:12:16.540Z,56.65
2023-10-30T21:14:45.403Z,56.79
2023-10-30T21:17:14.848Z,56.95
2023-10-30T21:19:44.219Z,57.31
2023-10-30T21:22:17.543Z,56.73
2023-10-30T21:24:46.216Z,56.90
2023-10-30T21:27:15.555Z,56.78
2023-10-30T21:29:45.684Z,56.87
2023-10-30T21:32:15.487Z,57.16
2023-10-30T21:34:46.946Z,57.51
2023-10-30T21:37:16.931Z,57.75
2023-10-30T21:43:11.441Z,56.94
2023-10-30T21:45:45.840Z,57.01
2023-10-30T21:48:15.849Z,56.32
2023-10-30T21:50:50.153Z,57.15
2023-10-30T21:53:21.015Z,57.00
2023-10-30T21:56:33.575Z,57.13
2023-10-30T21:59:18.801Z,57.39
2023-10-30T22:01:51.605Z,56.99
2023-10-30T22:04:21.967Z,57.23
